Time;durP1;ratioP1;P1;durP2;ratioP2;P2;SDS_P1;SDS_P2;PMS_P1;PMS_P2;Temp;Humidity;BMP_temperature;BMP_pressure;BME280_temperature;BME280_humidity;BME280_pressure;Samples;Min_cycle;Max_cycle;Signal;HPM_P1;HPM_P2
2022/07/17 00:00:21;;;;;;;6.92;4.17;;;;;;;12.29;90.43;99698.70;4315737;80;21398;-84
2022/07/17 00:06:29;;;;;;;5.83;3.90;;;;;;;12.24;90.51;99705.91;4312165;80;20992;-85
2022/07/17 00:12:38;;;;;;;10.68;4.10;;;;;;;12.21;90.80;99723.11;4292659;81;21002;-84
2022/07/17 00:18:51;;;;;;;10.35;4.28;;;;;;;12.10;90.63;99727.64;4293639;81;21744;-85
2022/07/17 00:24:54;;;;;;;6.83;3.60;;;;;;;12.12;90.69;99739.02;4312283;80;21031;-83
2022/07/17 00:31:06;;;;;;;8.60;3.87;;;;;;;11.87;90.41;99733.69;4319410;81;21074;-82
2022/07/17 00:37:22;;;;;;;7.72;4.05;;;;;;;11.68;90.02;99731.58;4312382;81;21019;-82
2022/07/17 00:43:33;;;;;;;8.23;4.65;;;;;;;11.65;91.37;99736.43;4316510;82;21062;-82
2022/07/17 00:50:08;;;;;;;5.65;4.20;;;;;;;11.70;91.47;99743.77;4315148;81;21027;-82
2022/07/17 00:56:34;;;;;;;10.72;4.70;;;;;;;11.70;91.46;99738.28;4264763;82;21000;-82
2022/07/17 01:02:58;;;;;;;7.08;4.72;;;;;;;11.68;91.78;99746.67;4318948;81;21651;-82
2022/07/17 01:09:18;;;;;;;6.20;4.45;;;;;;;11.67;91.89;99754.66;4318658;81;21130;-82
2022/07/17 01:15:37;;;;;;;7.08;4.15;;;;;;;11.55;92.13;99749.31;4339569;82;21453;-82
2022/07/17 01:21:47;;;;;;;9.13;4.80;;;;;;;11.51;91.77;99751.21;4313852;81;20974;-82
2022/07/17 01:28:05;;;;;;;8.50;4.87;;;;;;;11.43;91.70;99748.11;4305370;81;21050;-82
2022/07/17 01:34:16;;;;;;;6.00;4.00;;;;;;;11.23;91.57;99750.05;4307118;80;21066;-82
2022/07/17 01:40:34;;;;;;;8.10;5.15;;;;;;;11.17;92.09;99753.44;4340401;80;21487;-82
2022/07/17 01:46:44;;;;;;;6.97;4.67;;;;;;;11.29;92.45;99755.45;4328380;80;21042;-82
2022/07/17 01:52:46;;;;;;;7.45;4.70;;;;;;;11.30;92.81;99759.00;4319014;81;21102;-84
2022/07/17 01:59:05;;;;;;;7.17;4.50;;;;;;;11.29;92.44;99758.20;4324037;81;21008;-83
2022/07/17 02:05:28;;;;;;;6.62;4.37;;;;;;;11.25;92.74;99757.92;4311259;81;21044;-82
2022/07/17 02:12:02;;;;;;;4.17;3.73;;;;;;;11.21;92.55;99759.80;4322084;80;21046;-82
2022/07/17 02:18:26;;;;;;;6.50;3.90;;;;;;;11.05;92.45;99763.98;4310247;80;21048;-82
2022/07/17 02:24:41;;;;;;;7.40;4.58;;;;;;;10.97;92.85;99759.50;4315838;80;21062;-82
2022/07/17 02:30:47;;;;;;;6.80;4.45;;;;;;;10.96;93.26;99757.33;4171736;82;21688;-83
2022/07/17 02:37:00;;;;;;;5.80;3.55;;;;;;;10.96;93.19;99758.70;4164249;84;21023;-82
2022/07/17 02:49:39;;;;;;;5.90;3.55;;;;;;;11.05;93.80;99763.98;4174046;83;21023;-83
2022/07/17 02:55:59;;;;;;;5.53;4.40;;;;;;;11.12;94.10;99764.11;4143661;84;21032;-82
2022/07/17 03:02:12;;;;;;;6.17;3.62;;;;;;;11.13;93.84;99765.72;4170611;84;21095;-83
2022/07/17 03:08:15;;;;;;;6.45;3.80;;;;;;;11.05;94.04;99766.16;4188325;84;21093;-82
2022/07/17 03:14:20;;;;;;;9.20;4.45;;;;;;;11.04;93.89;99772.77;4207711;84;21119;-83
2022/07/17 03:20:37;;;;;;;6.73;3.00;;;;;;;11.03;93.92;99773.13;4350911;81;21005;-80
2022/07/17 03:26:38;;;;;;;5.92;4.10;;;;;;;10.93;94.06;99772.34;4366035;79;21528;-80
2022/07/17 03:32:41;;;;;;;5.25;3.95;;;;;;;10.94;94.55;99779.39;4284235;81;21043;-80
2022/07/17 03:39:05;;;;;;;6.20;3.60;;;;;;;10.98;94.65;99782.98;4458149;79;21991;-80
2022/07/17 03:45:24;;;;;;;4.60;3.20;;;;;;;11.09;94.93;99788.92;4436426;79;21030;-79
2022/07/17 03:51:44;;;;;;;6.30;3.47;;;;;;;11.25;95.33;99798.45;4465028;78;20985;-80
2022/07/17 03:57:53;;;;;;;5.10;3.12;;;;;;;11.36;95.24;99804.16;4443868;79;21020;-80
2022/07/17 04:03:58;;;;;;;3.40;2.40;;;;;;;11.43;95.12;99807.06;4447869;79;21690;-79
2022/07/17 04:10:11;;;;;;;5.00;2.75;;;;;;;11.49;94.96;99815.20;4462389;78;21972;-79
2022/07/17 04:16:39;;;;;;;3.45;2.67;;;;;;;11.53;94.67;99808.63;4275664;81;21070;-81
2022/07/17 04:23:22;;;;;;;8.40;3.35;;;;;;;11.56;94.68;99815.36;4232013;82;21110;-82
2022/07/17 04:29:53;;;;;;;4.78;3.00;;;;;;;11.63;94.87;99814.95;4200001;82;21067;-85
2022/07/17 04:43:05;;;;;;;7.60;4.47;;;;;;;11.78;95.00;99836.57;4225782;81;21171;-82
2022/07/17 04:49:26;;;;;;;6.28;3.75;;;;;;;11.78;94.91;99838.75;4212420;83;21054;-82
2022/07/17 04:55:38;;;;;;;5.10;3.80;;;;;;;11.77;95.45;99839.91;4235420;82;21957;-83
2022/07/17 05:02:00;;;;;;;13.25;4.90;;;;;;;11.86;95.96;99845.96;4232945;83;21319;-82
2022/07/17 05:08:38;;;;;;;8.08;3.98;;;;;;;11.98;96.08;99857.37;4461639;79;21084;-82
2022/07/17 05:14:56;;;;;;;8.68;4.10;;;;;;;12.13;96.29;99859.20;4468988;79;21085;-81
2022/07/17 05:21:12;;;;;;;;;;;;;;;12.23;96.15;99858.02;4470942;79;21003;-82
2022/07/17 05:27:21;;;;;;;7.17;4.58;;;;;;;12.37;97.01;99855.52;4470204;79;20160;-82
2022/07/17 05:33:40;;;;;;;9.08;4.47;;;;;;;12.54;96.91;99856.41;4459215;79;20995;-82
2022/07/17 05:40:16;;;;;;;9.48;5.45;;;;;;;12.80;96.80;99858.98;4285607;82;21055;-83
2022/07/17 05:46:27;;;;;;;6.60;4.47;;;;;;;13.06;96.57;99866.68;4302072;82;21006;-83
2022/07/17 05:52:42;;;;;;;9.18;4.42;;;;;;;13.18;95.57;99871.18;4306375;81;21571;-83
2022/07/17 05:59:02;;;;;;;7.17;3.70;;;;;;;13.28;95.08;99876.05;4302313;81;21545;-82
2022/07/17 06:05:18;;;;;;;7.92;3.00;;;;;;;13.40;94.99;99884.06;4305893;82;21040;-82
2022/07/17 06:11:27;;;;;;;7.67;2.95;;;;;;;13.53;94.54;99882.69;4279863;82;21555;-82
2022/07/17 06:17:38;;;;;;;9.18;3.72;;;;;;;13.72;94.80;99890.20;4456453;79;20967;-81
2022/07/17 06:23:56;;;;;;;6.15;2.85;;;;;;;13.87;94.43;99893.92;4439997;79;21087;-83
2022/07/17 06:29:59;;;;;;;7.33;2.95;;;;;;;14.00;94.29;99894.66;4464474;79;21593;-83
2022/07/17 06:36:06;;;;;;;;;;;;;;;14.17;93.77;99901.55;4458396;79;21652;-82
2022/07/17 06:42:12;;;;;;;6.42;2.37;;;;;;;14.35;93.11;99903.13;4418564;79;20219;-82
2022/07/17 06:48:18;;;;;;;4.42;2.15;;;;;;;14.58;93.32;99902.39;4453178;79;21030;-83
2022/07/17 06:54:23;;;;;;;5.55;2.60;;;;;;;14.82;92.95;99906.74;4426142;79;20990;-82
2022/07/17 07:00:28;;;;;;;4.87;1.70;;;;;;;15.17;92.43;99908.41;4332600;81;21071;-82
2022/07/17 07:06:35;;;;;;;6.58;2.22;;;;;;;15.80;92.63;99905.84;4452595;79;21034;-83
2022/07/17 07:12:37;;;;;;;8.00;2.08;;;;;;;16.44;91.58;99911.22;4443619;77;21019;-84
2022/07/17 07:18:46;;;;;;;4.65;1.80;;;;;;;17.04;90.95;99916.20;4299004;81;21053;-82
2022/07/17 07:24:58;;;;;;;4.65;1.82;;;;;;;17.71;90.17;99919.48;4464411;79;21006;-83
2022/07/17 07:31:13;;;;;;;3.67;1.35;;;;;;;18.16;88.29;99925.44;4296347;82;21008;-83
2022/07/17 07:37:20;;;;;;;3.27;1.17;;;;;;;18.67;87.79;99917.23;4261146;82;21014;-83
2022/07/17 07:43:33;;;;;;;3.87;1.32;;;;;;;19.04;86.15;99904.88;4299657;81;20985;-83
2022/07/17 07:49:48;;;;;;;4.25;1.45;;;;;;;19.40;85.39;99904.77;4334100;82;22289;-84
2022/07/17 07:55:53;;;;;;;5.80;1.45;;;;;;;19.78;84.02;99906.94;4295955;82;21099;-84
2022/07/17 08:01:55;;;;;;;3.47;1.10;;;;;;;19.84;82.32;99922.72;4263326;82;20992;-84
2022/07/17 08:07:57;;;;;;;5.70;2.00;;;;;;;19.84;81.54;99917.16;4268016;81;21024;-82
2022/07/17 08:14:03;;;;;;;3.35;1.20;;;;;;;19.92;80.72;99915.88;4285759;81;21539;-83
2022/07/17 08:20:07;;;;;;;4.87;1.50;;;;;;;19.82;79.25;99925.14;4288535;81;21009;-84
2022/07/17 08:26:10;;;;;;;3.95;1.27;;;;;;;19.76;78.54;99931.56;4286330;82;21524;-83
2022/07/17 08:32:12;;;;;;;6.00;1.85;;;;;;;19.81;78.00;99939.45;4278269;82;21030;-83
2022/07/17 08:38:19;;;;;;;6.62;1.35;;;;;;;19.81;77.32;99936.67;4272743;81;20971;-82
2022/07/17 08:44:21;;;;;;;2.75;1.22;;;;;;;19.95;76.26;99943.45;4294906;82;21603;-84
2022/07/17 08:50:29;;;;;;;4.85;1.30;;;;;;;19.70;75.69;99943.71;4271680;82;20996;-83
2022/07/17 08:56:32;;;;;;;3.22;1.27;;;;;;;19.59;74.66;99946.44;4269968;82;21511;-84
2022/07/17 09:03:06;;;;;;;4.78;1.22;;;;;;;19.32;74.72;99949.66;4245930;81;21040;-82
2022/07/17 09:09:19;;;;;;;3.25;0.88;;;;;;;19.31;73.58;99947.47;4267664;82;21172;-84
2022/07/17 09:15:24;;;;;;;1.90;0.90;;;;;;;19.16;72.88;99949.37;4284435;81;22085;-84
2022/07/17 09:21:32;;;;;;;3.02;1.00;;;;;;;19.29;72.13;99946.32;4294731;82;21039;-83
2022/07/17 09:27:41;;;;;;;5.65;1.25;;;;;;;19.28;72.04;99959.41;4262145;81;21020;-86
2022/07/17 09:33:50;;;;;;;4.40;1.27;;;;;;;19.43;71.22;99965.63;4288479;82;21045;-84
2022/07/17 09:39:56;;;;;;;3.77;1.20;;;;;;;19.69;70.98;99951.87;4284300;82;21037;-84
2022/07/17 09:45:58;;;;;;;4.03;1.02;;;;;;;20.40;70.29;99948.27;4284649;82;21025;-84
2022/07/17 09:52:05;;;;;;;2.72;0.82;;;;;;;20.83;69.50;99945.08;4303022;82;21512;-84
2022/07/17 09:58:13;;;;;;;3.20;1.00;;;;;;;20.84;68.57;99947.44;4256384;82;21078;-84
2022/07/17 10:04:20;;;;;;;3.65;0.70;;;;;;;20.19;67.85;99952.11;4277115;82;21050;-84
2022/07/17 10:10:26;;;;;;;4.03;1.00;;;;;;;19.90;67.71;99952.24;4452697;79;20968;-83
2022/07/17 10:16:34;;;;;;;2.87;0.80;;;;;;;20.56;67.04;99954.81;4441878;79;21859;-84
2022/07/17 10:22:49;;;;;;;2.77;1.05;;;;;;;21.42;66.52;99953.07;4437003;79;21044;-84
2022/07/17 10:28:54;;;;;;;2.02;0.78;;;;;;;21.52;65.13;99950.69;4447818;79;20992;-82
2022/07/17 10:35:03;;;;;;;4.83;1.20;;;;;;;20.65;64.40;99960.64;4441426;79;21468;-84
2022/07/17 10:41:06;;;;;;;1.27;0.80;;;;;;;20.39;64.56;99961.38;4432380;79;20988;-84
2022/07/17 10:47:08;;;;;;;3.85;0.78;;;;;;;21.50;63.57;99959.47;4460586;79;21506;-84
2022/07/17 10:53:18;;;;;;;2.72;0.95;;;;;;;22.12;62.68;99957.92;4429053;79;20967;-82
2022/07/17 10:59:21;;;;;;;2.33;0.60;;;;;;;21.79;61.88;99970.92;4420688;78;21017;-85
2022/07/17 11:05:24;;;;;;;2.15;0.70;;;;;;;21.85;61.02;99961.47;4439589;78;21053;-84
2022/07/17 11:11:49;;;;;;;2.85;0.90;;;;;;;22.55;60.83;99963.59;4438952;79;21541;-84
2022/07/17 11:17:54;;;;;;;1.90;0.65;;;;;;;22.19;59.92;99957.80;4452321;79;21035;-84
2022/07/17 11:23:57;;;;;;;2.85;0.90;;;;;;;21.74;59.86;99961.03;4285247;82;21388;-85
2022/07/17 11:30:03;;;;;;;2.02;0.90;;;;;;;22.65;60.05;99952.02;4303068;82;21022;-85
2022/07/17 11:36:09;;;;;;;2.60;1.10;;;;;;;23.44;58.91;99939.95;4256287;83;21034;-83
2022/07/17 11:42:19;;;;;;;2.00;0.65;;;;;;;23.57;57.40;99947.17;4304242;82;21501;-82
2022/07/17 11:48:25;;;;;;;3.45;1.02;;;;;;;23.37;55.49;99938.73;4461721;79;21052;-83
2022/07/17 11:54:29;;;;;;;1.10;0.70;;;;;;;23.85;54.98;99944.23;4300460;82;20984;-83
2022/07/17 12:00:33;;;;;;;4.65;0.75;;;;;;;24.31;54.64;99945.91;4257235;82;21039;-84
2022/07/17 12:06:37;;;;;;;2.58;0.53;;;;;;;24.51;53.63;99934.52;4266753;82;21437;-85
2022/07/17 12:12:38;;;;;;;1.92;0.62;;;;;;;24.56;52.96;99935.36;4243386;82;21421;-84
2022/07/17 12:18:41;;;;;;;1.85;0.82;;;;;;;24.23;51.83;99929.77;4486965;79;20977;-82
2022/07/17 12:24:45;;;;;;;2.65;0.70;;;;;;;23.96;49.90;99929.35;4455894;79;21053;-84
2022/07/17 12:30:48;;;;;;;3.17;0.77;;;;;;;23.64;50.98;99926.03;4424510;79;21579;-84
2022/07/17 12:36:50;;;;;;;5.20;0.98;;;;;;;23.31;49.97;99920.33;4359528;81;21076;-81
2022/07/17 12:42:55;;;;;;;3.92;0.68;;;;;;;22.94;49.64;99923.64;4364141;80;21668;-84
2022/07/17 12:48:58;;;;;;;3.00;0.80;;;;;;;22.68;49.73;99908.69;4353042;80;21051;-84
2022/07/17 12:55:01;;;;;;;3.20;1.10;;;;;;;22.58;49.57;99920.88;4189108;84;21084;-84
2022/07/17 13:01:08;;;;;;;3.25;0.68;;;;;;;22.59;49.30;99921.06;4209214;84;21116;-84
2022/07/17 13:07:09;;;;;;;1.98;0.75;;;;;;;22.48;48.78;99921.09;4225885;82;21521;-84
2022/07/17 13:13:15;;;;;;;1.52;0.60;;;;;;;22.23;48.40;99921.64;4229811;83;21053;-84
2022/07/17 13:19:16;;;;;;;2.02;0.60;;;;;;;22.09;48.74;99915.56;4230363;83;21603;-84
2022/07/17 13:25:18;;;;;;;2.70;0.78;;;;;;;22.09;49.32;99912.78;4232535;83;21060;-84
2022/07/17 13:31:23;;;;;;;6.33;0.82;;;;;;;22.00;47.59;99907.00;4238088;82;21023;-84
2022/07/17 13:37:27;;;;;;;3.35;0.85;;;;;;;21.88;47.62;99911.20;4441869;79;21363;-84
2022/07/17 13:43:33;;;;;;;2.87;0.93;;;;;;;21.84;48.00;99906.33;4439591;79;21052;-84
2022/07/17 13:49:36;;;;;;;2.60;0.80;;;;;;;21.76;47.17;99899.91;4444809;79;21529;-85
2022/07/17 13:55:40;;;;;;;1.37;0.47;;;;;;;21.71;47.12;99901.97;4429659;79;20999;-84
2022/07/17 14:01:43;;;;;;;4.53;1.07;;;;;;;21.77;47.09;99893.15;4445416;79;22254;-85
2022/07/17 14:07:46;;;;;;;2.92;0.78;;;;;;;21.79;47.88;99887.91;4442203;78;22001;-85
2022/07/17 14:13:47;;;;;;;2.33;0.78;;;;;;;21.79;48.36;99889.30;4443682;79;21493;-85
2022/07/17 14:19:58;;;;;;;2.55;0.82;;;;;;;21.82;48.04;99894.02;4451665;79;20955;-85
2022/07/17 14:26:01;;;;;;;2.90;0.90;;;;;;;21.84;47.30;99891.00;4420886;79;20961;-85
2022/07/17 14:32:05;;;;;;;1.45;0.70;;;;;;;21.64;47.95;99895.13;4430020;79;21044;-85
2022/07/17 14:38:07;;;;;;;3.98;0.95;;;;;;;21.45;48.21;99894.52;4493731;79;20958;-86
2022/07/17 14:44:10;;;;;;;5.10;1.12;;;;;;;21.28;47.89;99890.03;4456419;79;21744;-85
2022/07/17 14:50:25;;;;;;;3.85;1.02;;;;;;;21.24;48.06;99892.11;4486306;79;21775;-84
2022/07/17 14:56:31;;;;;;;4.83;0.82;;;;;;;21.33;47.58;99888.78;4465760;79;21011;-86
2022/07/17 15:02:36;;;;;;;2.67;0.85;;;;;;;21.29;47.42;99883.27;4492927;79;21566;-85
2022/07/17 15:08:37;;;;;;;3.52;0.85;;;;;;;21.26;47.12;99881.94;4450563;78;20971;-86
2022/07/17 15:14:58;;;;;;;2.42;0.90;;;;;;;21.13;47.11;99872.61;4433159;79;21860;-86
2022/07/17 15:21:10;;;;;;;2.50;0.80;;;;;;;20.85;46.96;99874.46;4465106;79;21126;-86
2022/07/17 15:27:18;;;;;;;3.80;0.72;;;;;;;20.84;47.53;99872.89;4424966;77;21019;-82
2022/07/17 15:33:31;;;;;;;1.65;0.65;;;;;;;20.85;47.21;99870.28;4457627;77;21001;-84
2022/07/17 15:39:43;;;;;;;4.97;0.72;;;;;;;20.81;47.82;99870.37;4446188;77;21915;-84
2022/07/17 15:45:50;;;;;;;2.72;0.60;;;;;;;20.79;47.86;99865.02;4418085;79;20972;-82
2022/07/17 15:51:51;;;;;;;2.12;0.90;;;;;;;20.77;47.67;99859.09;4477849;79;21036;-85
2022/07/17 15:57:54;;;;;;;4.25;0.75;;;;;;;20.73;48.00;99861.95;4475941;79;20987;-84
2022/07/17 16:04:03;;;;;;;2.02;1.00;;;;;;;20.67;47.92;99859.44;4491768;79;21003;-85
2022/07/17 16:10:06;;;;;;;5.50;0.85;;;;;;;20.62;47.75;99855.77;4491186;79;21003;-85
2022/07/17 16:16:08;;;;;;;3.05;1.05;;;;;;;20.60;47.91;99855.98;4486472;79;21622;-84
2022/07/17 16:22:16;;;;;;;1.27;0.60;;;;;;;20.57;48.47;99856.83;4457706;79;21071;-85
2022/07/17 16:28:38;;;;;;;3.20;0.75;;;;;;;20.43;49.02;99845.33;4348896;81;21008;-85
2022/07/17 16:34:47;;;;;;;3.90;0.80;;;;;;;20.35;49.27;99848.03;4472615;78;21054;-85
2022/07/17 16:41:11;;;;;;;;;;;;;;;;;;;;;
2022/07/17 16:47:33;;;;;;;3.08;1.00;;;;;;;20.28;49.44;99839.78;4316964;81;21169;-85
2022/07/17 16:59:54;;;;;;;3.58;0.93;;;;;;;20.16;49.88;99832.82;4281932;81;21514;-84
2022/07/17 17:06:06;;;;;;;2.15;1.10;;;;;;;20.07;49.78;99822.80;4269090;81;21507;-85
2022/07/17 17:12:13;;;;;;;3.98;0.93;;;;;;;19.99;49.89;99827.47;4267156;81;21047;-84
2022/07/17 17:18:14;;;;;;;3.15;0.70;;;;;;;19.89;50.22;99827.00;4285814;82;21007;-86
2022/07/17 17:24:23;;;;;;;3.60;0.90;;;;;;;19.83;50.24;99827.28;4279710;82;20999;-86
2022/07/17 17:30:24;;;;;;;2.92;1.00;;;;;;;19.73;50.31;99819.27;4275759;81;21117;-86
2022/07/17 17:36:52;;;;;;;4.35;1.22;;;;;;;19.68;50.04;99827.29;4279174;81;21063;-85
2022/07/17 17:43:05;;;;;;;1.47;0.72;;;;;;;19.63;50.16;99827.73;4277068;81;21046;-85
2022/07/17 17:55:19;;;;;;;4.03;0.90;;;;;;;19.41;50.26;99825.82;4256035;81;20971;-83
2022/07/17 18:01:26;;;;;;;1.77;0.90;;;;;;;19.34;50.42;99827.89;4263614;81;21005;-85
2022/07/17 18:07:36;;;;;;;5.78;1.20;;;;;;;19.25;50.55;99831.12;4273960;81;21547;-85
2022/07/17 18:13:39;;;;;;;3.47;1.10;;;;;;;19.13;50.66;99839.97;4272722;81;20964;-86
2022/07/17 18:19:41;;;;;;;3.60;1.07;;;;;;;19.01;50.93;99839.11;4261940;82;21087;-85
2022/07/17 18:25:53;;;;;;;3.83;1.12;;;;;;;18.92;51.23;99838.01;4269280;82;21064;-85
2022/07/17 18:31:58;;;;;;;4.40;1.17;;;;;;;18.80;51.32;99846.81;4244908;83;21647;-84
2022/07/17 18:38:10;;;;;;;3.20;1.10;;;;;;;18.68;51.81;99849.50;4259581;82;20987;-84
2022/07/17 18:44:19;;;;;;;4.75;1.62;;;;;;;18.50;52.26;99848.25;4242611;81;21072;-85
2022/07/17 18:50:35;;;;;;;2.98;1.42;;;;;;;18.33;52.60;99853.88;4234568;83;21037;-85
2022/07/17 18:56:48;;;;;;;4.50;1.90;;;;;;;18.07;53.13;99864.91;4204252;83;21029;-85
2022/07/17 19:02:56;;;;;;;8.53;2.12;;;;;;;17.89;53.74;99873.11;4184943;85;20988;-84
2022/07/17 19:09:06;;;;;;;5.35;1.70;;;;;;;17.67;54.11;99877.95;4205330;83;21011;-85
2022/07/17 19:15:17;;;;;;;6.08;1.87;;;;;;;17.48;55.00;99891.47;4119164;84;21021;-85
2022/07/17 19:21:23;;;;;;;4.95;1.92;;;;;;;17.23;56.74;99903.34;4186155;83;20973;-85
2022/07/17 19:27:51;;;;;;;3.97;1.50;;;;;;;16.78;58.74;99924.09;4183489;84;21977;-85
2022/07/17 19:34:04;;;;;;;5.80;1.87;;;;;;;16.78;58.74;99924.09;4177414;84;21732;-84
2022/07/17 19:40:06;;;;;;;3.47;1.50;;;;;;;16.61;59.16;99929.81;4191989;83;22077;-85
2022/07/17 19:46:08;;;;;;;4.97;1.75;;;;;;;16.43;60.50;99936.42;4228670;81;21034;-84
2022/07/17 19:52:15;;;;;;;4.45;1.70;;;;;;;16.24;62.04;99939.55;4212585;83;21079;-85
2022/07/17 19:58:40;;;;;;;4.83;2.10;;;;;;;16.07;61.20;99947.19;4121117;85;21050;-85
2022/07/17 20:05:00;;;;;;;3.60;2.05;;;;;;;15.89;61.47;99944.92;4193104;83;21025;-85
2022/07/17 20:11:08;;;;;;;2.65;1.42;;;;;;;15.73;62.34;99935.58;4206314;83;21068;-85
2022/07/17 20:17:10;;;;;;;4.92;2.58;;;;;;;15.66;62.64;99941.84;4197270;83;21425;-85
2022/07/17 20:23:32;;;;;;;3.85;1.72;;;;;;;15.54;63.00;99944.13;4204781;83;21030;-85
2022/07/17 20:29:33;;;;;;;4.53;1.85;;;;;;;15.42;64.15;99939.74;4261695;81;21208;-84
2022/07/17 20:35:35;;;;;;;8.83;2.05;;;;;;;15.15;64.65;99945.80;4268896;81;21537;-84
2022/07/17 20:41:36;;;;;;;6.78;3.72;;;;;;;14.84;64.49;99954.02;4272380;81;21043;-85
2022/07/17 20:47:59;;;;;;;5.25;2.37;;;;;;;14.50;65.51;99953.86;4246981;82;21948;-84
2022/07/17 21:00:19;;;;;;;7.90;2.83;;;;;;;14.19;66.26;99961.16;4269070;83;20966;-84
2022/07/17 21:06:27;;;;;;;5.78;2.55;;;;;;;13.98;66.35;99958.93;4244697;82;21025;-84
2022/07/17 21:12:34;;;;;;;4.83;2.08;;;;;;;13.87;66.72;99959.98;4247735;83;20974;-84
2022/07/17 21:18:36;;;;;;;4.25;2.30;;;;;;;13.94;67.94;99960.86;4255556;82;21448;-84
2022/07/17 21:24:38;;;;;;;6.90;2.65;;;;;;;13.94;68.67;99965.56;4258761;82;21008;-84
2022/07/17 21:30:40;;;;;;;8.70;2.33;;;;;;;13.90;69.46;99968.86;4263681;82;21483;-84
2022/07/17 21:36:41;;;;;;;8.18;2.52;;;;;;;13.79;70.22;99974.23;4246488;82;21038;-84
2022/07/17 21:42:44;;;;;;;6.30;2.80;;;;;;;13.64;70.71;99975.18;4250187;82;21075;-83
2022/07/17 21:48:47;;;;;;;4.40;2.42;;;;;;;13.48;71.23;99978.70;4252565;82;22062;-84
2022/07/17 21:54:55;;;;;;;2.98;2.10;;;;;;;13.39;71.73;99979.52;4258242;82;21007;-84
2022/07/17 22:00:57;;;;;;;5.05;2.15;;;;;;;13.24;72.38;99983.22;4245592;82;21049;-83
2022/07/17 22:07:02;;;;;;;5.53;2.02;;;;;;;13.12;72.63;99984.80;4251054;82;21068;-85
2022/07/17 22:13:16;;;;;;;5.65;2.20;;;;;;;12.96;72.97;99991.54;4247625;82;21063;-83
2022/07/17 22:19:23;;;;;;;4.47;2.30;;;;;;;12.87;73.57;99998.67;4247010;82;21036;-83
2022/07/17 22:25:32;;;;;;;4.67;2.30;;;;;;;12.78;74.09;99995.95;4244896;82;21621;-85
2022/07/17 22:31:39;;;;;;;4.75;2.10;;;;;;;12.71;74.25;99993.05;4254579;82;21082;-83
2022/07/17 22:37:41;;;;;;;10.50;2.52;;;;;;;12.65;74.96;99996.70;4250226;82;21019;-83
2022/07/17 22:43:53;;;;;;;5.97;2.15;;;;;;;12.60;75.32;99996.42;4244643;82;21034;-83
2022/07/17 22:50:05;;;;;;;4.45;2.05;;;;;;;12.50;75.57;99993.45;4286485;81;20994;-83
2022/07/17 22:56:10;;;;;;;3.77;2.10;;;;;;;12.45;76.12;99997.86;4274139;82;21831;-82
2022/07/17 23:02:16;;;;;;;6.33;2.58;;;;;;;12.33;76.66;100001.57;4237901;82;21042;-83
2022/07/17 23:08:23;;;;;;;8.08;2.30;;;;;;;12.23;76.54;100009.00;4279085;82;21050;-83
2022/07/17 23:14:25;;;;;;;3.65;1.70;;;;;;;12.14;76.95;100002.94;4267128;81;21015;-83
2022/07/17 23:20:32;;;;;;;6.10;2.25;;;;;;;12.05;77.59;100004.30;4268693;81;21046;-83
2022/07/17 23:26:39;;;;;;;4.97;2.40;;;;;;;12.02;77.52;100005.83;4266800;81;21028;-83
2022/07/17 23:32:44;;;;;;;4.65;2.22;;;;;;;11.96;77.70;100003.72;4256391;81;21464;-83
2022/07/17 23:38:47;;;;;;;7.50;2.12;;;;;;;11.82;78.01;100002.05;4285551;82;20955;-82
2022/07/17 23:44:50;;;;;;;4.72;2.33;;;;;;;11.90;78.96;100005.94;4265696;81;21526;-83
2022/07/17 23:50:56;;;;;;;4.22;2.08;;;;;;;11.84;78.43;100008.75;4210474;83;21038;-84
2022/07/17 23:57:03;;;;;;;6.50;2.15;;;;;;;11.76;78.81;100008.38;4114086;84;21052;-83
